Time;durP1;ratioP1;P1;durP2;ratioP2;P2;SDS_P1;SDS_P2;PMS_P1;PMS_P2;Temp;Humidity;BMP_temperature;BMP_pressure;BME280_temperature;BME280_humidity;BME280_pressure;Samples;Min_cycle;Max_cycle;Signal;HPM_P1;HPM_P2
2024/01/19 00:00:11;;;;;;;13.27;7.43;;;-1.50;99.90;;;;;;4999631;28;20544;-67
2024/01/19 00:02:38;;;;;;;12.80;7.00;;;-1.50;99.90;;;;;;4999345;28;20972;-67
2024/01/19 00:05:07;;;;;;;13.50;8.73;;;-1.50;99.90;;;;;;4999224;28;20478;-68
2024/01/19 00:07:34;;;;;;;13.83;8.33;;;-1.50;99.90;;;;;;4999179;28;20470;-66
2024/01/19 00:10:02;;;;;;;15.37;7.90;;;-1.50;99.90;;;;;;4999272;28;20515;-68
2024/01/19 00:12:35;;;;;;;18.20;8.40;;;-1.50;99.90;;;;;;4999324;28;20473;-70
2024/01/19 00:15:02;;;;;;;10.50;7.67;;;-1.50;99.90;;;;;;4999320;28;20469;-70
2024/01/19 00:17:29;;;;;;;11.00;8.77;;;-1.50;99.90;;;;;;4999693;28;20488;-70
2024/01/19 00:19:56;;;;;;;15.43;8.47;;;-1.60;99.90;;;;;;4999070;28;20580;-68
2024/01/19 00:22:24;;;;;;;14.53;7.13;;;-1.60;99.90;;;;;;4999781;28;20457;-67
2024/01/19 00:24:51;;;;;;;14.43;8.40;;;-1.70;99.90;;;;;;4998636;28;20528;-67
2024/01/19 00:27:19;;;;;;;15.80;6.40;;;-1.70;99.90;;;;;;4998987;28;20872;-68
2024/01/19 00:29:45;;;;;;;11.03;8.30;;;-1.70;99.90;;;;;;4998822;28;20491;-67
2024/01/19 00:32:12;;;;;;;13.93;8.00;;;-1.60;99.90;;;;;;4998946;28;20860;-67
2024/01/19 00:34:39;;;;;;;11.50;7.50;;;-1.50;99.90;;;;;;4999441;28;20970;-67
2024/01/19 00:37:07;;;;;;;12.40;7.37;;;-1.50;99.90;;;;;;4999736;28;20455;-68
2024/01/19 00:39:38;;;;;;;12.50;7.50;;;-1.50;99.90;;;;;;5000481;28;20452;-66
2024/01/19 00:42:05;;;;;;;15.00;7.13;;;-1.50;99.90;;;;;;5002016;28;20480;-70
2024/01/19 00:44:34;;;;;;;11.07;6.03;;;-1.50;99.90;;;;;;5001917;28;20493;-68
2024/01/19 00:47:01;;;;;;;9.13;5.50;;;-1.50;99.90;;;;;;5002212;28;20941;-68
2024/01/19 00:49:27;;;;;;;11.97;7.33;;;-1.50;99.90;;;;;;5006747;28;20472;-67
2024/01/19 00:51:54;;;;;;;10.47;6.07;;;-1.40;99.90;;;;;;5011441;28;20524;-68
2024/01/19 00:54:23;;;;;;;11.57;6.07;;;-1.40;99.90;;;;;;5010157;28;20763;-67
2024/01/19 00:56:50;;;;;;;12.73;6.50;;;-1.50;99.90;;;;;;5011803;28;20481;-68
2024/01/19 00:59:17;;;;;;;10.63;4.90;;;-1.40;99.90;;;;;;5009735;28;20504;-68
2024/01/19 01:01:45;;;;;;;9.50;6.57;;;-1.50;99.90;;;;;;5009597;28;20831;-68
2024/01/19 01:04:12;;;;;;;8.40;5.33;;;-1.50;99.90;;;;;;5009372;28;20485;-68
2024/01/19 01:06:39;;;;;;;12.13;6.90;;;-1.40;99.90;;;;;;5009023;28;20454;-69
2024/01/19 01:09:06;;;;;;;13.73;5.40;;;-1.50;99.90;;;;;;5008964;28;20472;-67
2024/01/19 01:11:32;;;;;;;11.17;5.60;;;-1.50;99.90;;;;;;5009581;28;20441;-68
2024/01/19 01:14:01;;;;;;;11.97;6.80;;;-1.50;99.90;;;;;;5008458;28;20511;-66
2024/01/19 01:16:29;;;;;;;11.90;6.50;;;-1.60;99.90;;;;;;5008480;28;20615;-68
2024/01/19 01:18:57;;;;;;;10.43;6.23;;;-1.60;99.90;;;;;;5009247;28;20449;-68
2024/01/19 01:21:25;;;;;;;11.03;6.87;;;-1.60;99.90;;;;;;5009168;28;20465;-69
2024/01/19 01:23:55;;;;;;;14.13;7.30;;;-1.60;99.90;;;;;;5015433;28;20508;-66
2024/01/19 01:26:22;;;;;;;13.20;6.93;;;-1.60;99.90;;;;;;5016325;28;20437;-67
2024/01/19 01:28:51;;;;;;;14.33;6.90;;;-1.60;99.90;;;;;;5015378;28;20477;-67
2024/01/19 01:31:19;;;;;;;11.10;7.03;;;-1.70;99.90;;;;;;5015207;28;20908;-65
2024/01/19 01:33:46;;;;;;;14.20;7.10;;;-1.60;99.90;;;;;;5016262;28;20476;-66
2024/01/19 01:36:13;;;;;;;13.00;7.30;;;-1.70;99.90;;;;;;5016025;28;20461;-67
2024/01/19 01:38:40;;;;;;;12.60;7.67;;;-1.80;99.90;;;;;;5015747;28;20455;-69
2024/01/19 01:41:07;;;;;;;15.90;8.53;;;-1.80;99.90;;;;;;5015710;28;20481;-68
2024/01/19 01:43:37;;;;;;;13.27;6.80;;;-1.80;99.90;;;;;;5016498;28;20436;-69
2024/01/19 01:46:04;;;;;;;17.67;7.40;;;-1.90;99.90;;;;;;5017095;28;20473;-67
2024/01/19 01:48:33;;;;;;;13.33;8.13;;;-1.90;99.90;;;;;;5016865;28;20444;-67
2024/01/19 01:51:01;;;;;;;14.67;8.00;;;-1.90;99.90;;;;;;5017051;28;20456;-65
2024/01/19 01:53:28;;;;;;;9.23;6.77;;;-2.00;99.90;;;;;;5016883;28;20463;-68
2024/01/19 01:55:58;;;;;;;13.80;7.50;;;-2.10;99.90;;;;;;5017557;28;20437;-67
2024/01/19 01:58:28;;;;;;;11.30;5.50;;;-2.10;99.90;;;;;;5016828;28;20472;-67
2024/01/19 02:00:55;;;;;;;17.60;7.37;;;-2.20;99.90;;;;;;5017331;28;20440;-67
2024/01/19 02:03:52;;;;;;;11.60;8.33;;;-2.20;99.90;;;;;;5017640;28;20461;-67
2024/01/19 02:06:19;;;;;;;11.50;7.23;;;-2.20;99.90;;;;;;5012465;28;20492;-67
2024/01/19 02:08:48;;;;;;;12.87;6.10;;;-2.20;99.90;;;;;;5017194;28;20436;-67
2024/01/19 02:11:15;;;;;;;11.67;7.30;;;-2.20;99.90;;;;;;5015740;28;20484;-66
2024/01/19 02:13:41;;;;;;;20.33;7.50;;;-2.20;99.90;;;;;;5016031;28;20455;-65
2024/01/19 02:16:11;;;;;;;15.87;5.90;;;-2.20;99.90;;;;;;5016162;28;20445;-66
2024/01/19 02:18:42;;;;;;;13.13;7.20;;;-2.20;99.90;;;;;;5019423;28;20444;-67
2024/01/19 02:21:10;;;;;;;11.30;5.70;;;-2.20;99.90;;;;;;5020522;28;20429;-67
2024/01/19 02:23:44;;;;;;;11.53;6.30;;;-2.30;99.90;;;;;;5020729;28;20488;-70
2024/01/19 02:26:13;;;;;;;9.80;7.40;;;-2.30;99.90;;;;;;5020629;28;20424;-67
2024/01/19 02:28:43;;;;;;;11.10;7.63;;;-2.30;99.90;;;;;;5020144;28;20437;-67
2024/01/19 02:31:09;;;;;;;15.70;7.77;;;-2.40;99.90;;;;;;5019662;28;20437;-68
2024/01/19 02:33:50;;;;;;;9.43;6.50;;;-2.40;99.90;;;;;;5019545;28;20437;-68
2024/01/19 02:36:17;;;;;;;13.30;5.70;;;-2.30;99.90;;;;;;5019481;28;20577;-67
2024/01/19 02:38:44;;;;;;;12.10;7.17;;;-2.20;99.90;;;;;;5019428;28;20454;-68
2024/01/19 02:41:12;;;;;;;9.50;6.50;;;-2.20;99.90;;;;;;5018572;28;20499;-67
2024/01/19 02:43:39;;;;;;;11.83;7.13;;;-2.10;99.90;;;;;;5018470;28;20448;-67
2024/01/19 02:46:06;;;;;;;12.20;6.10;;;-2.10;99.90;;;;;;5018532;28;20464;-66
2024/01/19 02:48:34;;;;;;;7.20;5.00;;;-2.10;99.90;;;;;;5018497;28;20463;-67
2024/01/19 02:51:01;;;;;;;9.30;5.20;;;-2.10;99.90;;;;;;5018805;28;20449;-65
2024/01/19 02:53:28;;;;;;;11.50;6.30;;;-2.10;99.90;;;;;;5018072;28;20485;-67
2024/01/19 02:55:55;;;;;;;10.10;6.10;;;-2.10;99.90;;;;;;5018332;28;20456;-66
2024/01/19 02:58:23;;;;;;;9.93;5.93;;;-2.10;99.90;;;;;;5018020;28;20464;-67
2024/01/19 03:00:54;;;;;;;13.20;6.70;;;-2.00;99.90;;;;;;5017990;28;20472;-66
2024/01/19 03:03:21;;;;;;;8.83;6.10;;;-2.00;99.90;;;;;;5018137;28;20487;-66
2024/01/19 03:05:57;;;;;;;12.60;5.67;;;-2.00;99.90;;;;;;5017658;28;20777;-66
2024/01/19 03:08:27;;;;;;;7.90;4.93;;;-2.00;99.90;;;;;;5017996;28;20449;-68
2024/01/19 03:10:55;;;;;;;9.07;4.13;;;-2.00;99.90;;;;;;5017985;28;20409;-67
2024/01/19 03:13:23;;;;;;;9.47;5.87;;;-1.90;99.90;;;;;;5017973;28;20456;-66
2024/01/19 03:15:50;;;;;;;11.10;4.83;;;-1.90;99.90;;;;;;5017468;28;20437;-65
2024/01/19 03:18:18;;;;;;;16.73;5.37;;;-1.90;99.90;;;;;;5018030;28;20511;-67
2024/01/19 03:20:45;;;;;;;8.43;3.97;;;-1.90;99.90;;;;;;5017863;28;20453;-67
2024/01/19 03:23:12;;;;;;;8.03;5.23;;;-1.90;99.90;;;;;;5017943;28;20452;-65
2024/01/19 03:25:39;;;;;;;9.53;4.37;;;-1.80;99.90;;;;;;5017324;28;20492;-67
2024/01/19 03:28:06;;;;;;;5.57;4.10;;;-1.90;99.90;;;;;;5018635;28;20450;-65
2024/01/19 03:30:34;;;;;;;5.90;4.47;;;-1.80;99.90;;;;;;5018952;28;20477;-67
2024/01/19 03:33:01;;;;;;;7.37;4.17;;;-1.80;99.90;;;;;;5019609;28;20484;-67
2024/01/19 03:35:31;;;;;;;7.40;3.50;;;-1.80;99.90;;;;;;5018724;28;20437;-67
2024/01/19 03:37:58;;;;;;;4.77;3.03;;;-1.80;99.90;;;;;;5017743;28;20484;-67
2024/01/19 03:40:27;;;;;;;11.93;4.93;;;-1.80;99.90;;;;;;5017455;28;20448;-66
2024/01/19 03:42:57;;;;;;;7.80;3.97;;;-1.80;99.90;;;;;;5016912;28;20484;-65
2024/01/19 03:45:24;;;;;;;8.07;5.00;;;-1.80;99.90;;;;;;5017164;28;20507;-67
2024/01/19 03:47:52;;;;;;;4.43;2.97;;;-1.80;99.90;;;;;;5017077;28;20464;-66
2024/01/19 03:50:19;;;;;;;7.70;3.73;;;-1.80;99.90;;;;;;5016647;28;20460;-66
2024/01/19 03:52:46;;;;;;;8.50;3.87;;;-1.70;99.90;;;;;;5017191;28;20497;-67
2024/01/19 03:55:13;;;;;;;11.43;4.80;;;-1.70;99.90;;;;;;5016526;28;20810;-68
2024/01/19 03:57:40;;;;;;;8.33;4.00;;;-1.60;99.90;;;;;;5016940;28;20508;-67
2024/01/19 04:00:08;;;;;;;10.50;4.80;;;-1.60;99.90;;;;;;5016784;28;20452;-66
2024/01/19 04:02:35;;;;;;;5.33;3.10;;;-1.60;99.90;;;;;;5016955;28;20464;-66
2024/01/19 04:05:04;;;;;;;5.13;2.93;;;-1.50;99.90;;;;;;5016004;28;20511;-66
2024/01/19 04:07:31;;;;;;;5.43;3.90;;;-1.50;99.90;;;;;;5015619;28;20477;-66
2024/01/19 04:09:58;;;;;;;3.90;2.13;;;-1.50;99.90;;;;;;5015942;28;20449;-67
2024/01/19 04:12:25;;;;;;;4.50;3.53;;;-1.40;99.90;;;;;;5015751;28;20488;-67
2024/01/19 04:14:52;;;;;;;5.30;3.40;;;-1.40;99.90;;;;;;5016115;28;20456;-66
2024/01/19 04:17:19;;;;;;;3.90;2.33;;;-1.40;99.90;;;;;;5016996;28;20457;-67
2024/01/19 04:19:46;;;;;;;4.67;3.03;;;-1.30;99.90;;;;;;5017019;28;20472;-66
2024/01/19 04:22:14;;;;;;;4.80;2.30;;;-1.20;99.90;;;;;;5016680;28;20441;-65
2024/01/19 04:24:40;;;;;;;7.23;3.30;;;-1.20;99.90;;;;;;5016166;28;20501;-67
2024/01/19 04:27:07;;;;;;;13.53;2.80;;;-1.10;99.90;;;;;;5016307;28;20448;-66
2024/01/19 04:29:34;;;;;;;4.07;2.77;;;-1.00;99.90;;;;;;5015133;28;20447;-66
2024/01/19 04:32:01;;;;;;;6.77;3.10;;;-0.90;99.90;;;;;;5015702;28;20465;-66
2024/01/19 04:34:32;;;;;;;3.93;2.37;;;-0.90;99.90;;;;;;5015285;28;20473;-67
2024/01/19 04:37:07;;;;;;;8.80;4.07;;;-0.80;99.90;;;;;;5015979;28;20433;-66
2024/01/19 04:39:35;;;;;;;2.40;1.60;;;-0.80;99.90;;;;;;5016075;28;20445;-64
2024/01/19 04:42:02;;;;;;;3.30;2.30;;;-0.80;99.90;;;;;;5015685;28;20426;-65
2024/01/19 04:44:29;;;;;;;7.43;2.40;;;-0.70;99.90;;;;;;5016958;28;20502;-66
2024/01/19 04:46:56;;;;;;;3.30;2.00;;;-0.70;99.90;;;;;;5017240;28;20457;-66
2024/01/19 04:49:23;;;;;;;3.70;2.47;;;-0.70;99.90;;;;;;5017170;28;20455;-66
2024/01/19 04:51:52;;;;;;;3.63;1.90;;;-0.60;99.90;;;;;;5016330;28;20510;-66
2024/01/19 04:54:18;;;;;;;4.70;2.30;;;-0.60;99.90;;;;;;5015905;28;20452;-66
2024/01/19 04:56:51;;;;;;;7.40;2.90;;;-0.60;99.90;;;;;;5015626;28;20486;-65
2024/01/19 04:59:18;;;;;;;5.13;2.60;;;-0.60;99.90;;;;;;5015425;28;20883;-67
2024/01/19 05:01:45;;;;;;;7.00;3.03;;;-0.60;99.90;;;;;;5015547;28;20453;-68
2024/01/19 05:04:12;;;;;;;3.53;3.20;;;-0.70;99.90;;;;;;5016010;28;20513;-66
2024/01/19 05:06:42;;;;;;;3.60;2.00;;;-0.70;99.90;;;;;;5015345;28;20491;-65
2024/01/19 05:09:11;;;;;;;3.93;2.40;;;-0.70;99.90;;;;;;5015161;28;20485;-66
2024/01/19 05:11:39;;;;;;;2.83;2.47;;;-0.70;99.90;;;;;;5015112;28;20514;-66
2024/01/19 05:14:07;;;;;;;4.03;2.67;;;-0.70;99.90;;;;;;5015054;28;20472;-68
2024/01/19 05:16:37;;;;;;;4.30;2.40;;;-0.70;99.90;;;;;;5015378;28;20489;-66
2024/01/19 05:19:09;;;;;;;2.57;1.87;;;-0.70;99.90;;;;;;5015371;28;20536;-64
2024/01/19 05:21:36;;;;;;;5.10;2.37;;;-0.70;99.90;;;;;;5015192;28;20440;-66
2024/01/19 05:24:03;;;;;;;5.67;2.50;;;-0.60;99.90;;;;;;5015448;28;20453;-65
2024/01/19 05:26:30;;;;;;;1.90;1.53;;;-0.60;99.90;;;;;;5014985;28;20519;-67
2024/01/19 05:28:59;;;;;;;2.90;2.27;;;-0.60;99.90;;;;;;5014782;28;20512;-65
2024/01/19 05:31:27;;;;;;;5.80;2.60;;;-0.60;99.90;;;;;;5015233;28;20480;-66
2024/01/19 05:33:54;;;;;;;5.10;2.40;;;-0.60;99.90;;;;;;5015406;28;20549;-66
2024/01/19 05:36:21;;;;;;;3.90;1.80;;;-0.60;99.90;;;;;;5016260;28;20457;-67
2024/01/19 05:38:48;;;;;;;5.00;2.77;;;-0.60;99.90;;;;;;5016672;28;20459;-66
2024/01/19 05:41:26;;;;;;;9.17;3.83;;;-0.60;99.90;;;;;;5017692;28;20445;-64
2024/01/19 05:44:02;;;;;;;9.70;2.30;;;-0.50;99.90;;;;;;5018678;28;20413;-66
2024/01/19 05:46:31;;;;;;;3.07;1.83;;;-0.50;99.90;;;;;;5018087;28;20515;-65
2024/01/19 05:49:03;;;;;;;2.80;2.03;;;-0.50;99.90;;;;;;5016633;28;20503;-66
2024/01/19 05:51:30;;;;;;;4.13;1.63;;;-0.50;99.90;;;;;;5016162;28;20423;-67
2024/01/19 05:54:00;;;;;;;8.57;2.70;;;-0.50;99.90;;;;;;5019222;28;20468;-66
2024/01/19 05:56:27;;;;;;;3.47;1.63;;;-0.50;99.90;;;;;;5018493;28;20979;-67
2024/01/19 05:58:56;;;;;;;8.17;2.53;;;-0.50;99.90;;;;;;5019454;28;20533;-66
2024/01/19 06:01:23;;;;;;;10.73;2.83;;;-0.50;99.90;;;;;;5019151;28;20448;-65
2024/01/19 06:03:51;;;;;;;6.33;2.47;;;-0.50;99.90;;;;;;5019196;28;20476;-66
2024/01/19 06:06:19;;;;;;;3.60;2.53;;;-0.50;99.90;;;;;;5019123;28;20515;-66
2024/01/19 06:08:46;;;;;;;5.00;2.10;;;-0.50;99.90;;;;;;5019023;28;20449;-64
2024/01/19 06:11:13;;;;;;;4.27;2.30;;;-0.50;99.90;;;;;;5019081;28;20469;-65
2024/01/19 06:13:40;;;;;;;1.97;1.50;;;-0.60;99.90;;;;;;5019674;28;20448;-66
2024/01/19 06:16:10;;;;;;;4.60;2.43;;;-0.70;99.90;;;;;;5019238;28;20451;-67
2024/01/19 06:18:39;;;;;;;2.43;1.57;;;-0.70;99.90;;;;;;5018664;28;20437;-66
2024/01/19 06:21:11;;;;;;;16.13;2.83;;;-0.70;99.90;;;;;;5019201;28;20446;-66
2024/01/19 06:23:40;;;;;;;4.40;2.13;;;-0.70;99.90;;;;;;5018828;28;20446;-66
2024/01/19 06:26:12;;;;;;;3.27;2.10;;;-0.70;99.90;;;;;;5018247;28;20504;-65
2024/01/19 06:28:42;;;;;;;5.57;2.33;;;-0.70;99.90;;;;;;5018404;28;20425;-66
2024/01/19 06:31:10;;;;;;;4.00;2.20;;;-0.70;99.90;;;;;;5018197;28;20464;-67
2024/01/19 06:33:41;;;;;;;5.90;2.50;;;-0.70;99.90;;;;;;5017740;28;20504;-66
2024/01/19 06:36:09;;;;;;;9.47;4.00;;;-0.70;99.90;;;;;;5018219;28;20444;-66
2024/01/19 06:38:37;;;;;;;2.77;2.07;;;-0.70;99.90;;;;;;5017037;28;20952;-66
2024/01/19 06:41:04;;;;;;;2.63;1.80;;;-0.70;99.90;;;;;;5017688;28;20468;-66
2024/01/19 06:43:31;;;;;;;5.73;1.53;;;-0.70;99.90;;;;;;5017894;28;20452;-66
2024/01/19 06:45:58;;;;;;;2.77;1.70;;;-0.70;99.90;;;;;;5017426;28;20476;-66
2024/01/19 06:48:25;;;;;;;2.83;2.10;;;-0.70;99.90;;;;;;5018010;28;20428;-66
2024/01/19 06:50:52;;;;;;;6.30;2.07;;;-0.70;99.90;;;;;;5018127;28;20444;-65
2024/01/19 06:53:19;;;;;;;3.27;2.30;;;-0.70;99.90;;;;;;5017596;28;20452;-67
2024/01/19 06:55:47;;;;;;;3.20;1.90;;;-0.70;99.90;;;;;;5017509;28;20940;-67
2024/01/19 06:58:19;;;;;;;2.17;1.87;;;-0.60;99.90;;;;;;5018555;28;20465;-65
2024/01/19 07:00:49;;;;;;;2.90;1.50;;;-0.50;99.90;;;;;;5018654;28;20465;-66
2024/01/19 07:03:16;;;;;;;4.40;1.60;;;-0.40;99.90;;;;;;5018757;28;20421;-65
2024/01/19 07:05:43;;;;;;;6.03;2.40;;;-0.40;99.90;;;;;;5019495;28;20485;-66
2024/01/19 07:08:10;;;;;;;2.07;1.83;;;-0.30;99.90;;;;;;5019534;28;20513;-65
2024/01/19 07:10:42;;;;;;;3.43;1.90;;;-0.30;99.90;;;;;;5018526;28;20509;-65
2024/01/19 07:13:15;;;;;;;5.20;2.60;;;-0.30;99.90;;;;;;5017662;28;20433;-65
2024/01/19 07:15:42;;;;;;;3.27;1.57;;;-0.20;99.90;;;;;;5017494;28;20445;-65
2024/01/19 07:18:14;;;;;;;6.17;2.90;;;-0.10;99.90;;;;;;5017293;28;20470;-67
2024/01/19 07:20:46;;;;;;;8.27;2.40;;;-0.10;99.90;;;;;;5018347;28;20431;-66
2024/01/19 07:23:14;;;;;;;3.63;1.80;;;0.00;99.90;;;;;;5017160;28;20460;-66
2024/01/19 07:25:41;;;;;;;2.70;1.70;;;0.00;99.90;;;;;;5017498;28;20503;-66
2024/01/19 07:28:09;;;;;;;2.13;1.70;;;0.00;99.90;;;;;;5017454;28;20459;-66
2024/01/19 07:30:42;;;;;;;2.53;1.90;;;0.00;99.90;;;;;;5017619;28;20468;-66
2024/01/19 07:33:13;;;;;;;2.03;1.27;;;0.10;99.90;;;;;;5017269;28;20473;-67
2024/01/19 07:35:42;;;;;;;4.67;2.33;;;0.10;99.90;;;;;;5017537;28;20469;-65
2024/01/19 07:38:16;;;;;;;5.40;2.20;;;0.10;99.90;;;;;;5017489;28;20482;-65
2024/01/19 07:40:46;;;;;;;3.50;2.27;;;0.50;99.90;;;;;;5017891;28;20408;-64
2024/01/19 07:43:14;;;;;;;3.33;2.27;;;0.50;99.90;;;;;;5017596;28;20458;-64
2024/01/19 07:45:41;;;;;;;6.03;2.00;;;0.40;99.90;;;;;;5017633;28;20495;-65
2024/01/19 07:48:08;;;;;;;9.60;2.30;;;0.40;99.90;;;;;;5017518;28;20493;-66
2024/01/19 07:50:34;;;;;;;4.87;2.70;;;0.40;99.90;;;;;;5017724;28;20486;-65
2024/01/19 07:53:01;;;;;;;7.90;2.93;;;0.30;99.90;;;;;;5018344;28;20479;-60
2024/01/19 07:55:28;;;;;;;5.50;2.60;;;0.30;99.90;;;;;;5018878;28;20453;-65
2024/01/19 07:57:55;;;;;;;6.80;3.23;;;0.30;99.90;;;;;;5018602;28;20434;-64
2024/01/19 08:00:23;;;;;;;4.33;3.23;;;0.40;99.90;;;;;;5018349;28;20446;-66
2024/01/19 08:02:53;;;;;;;11.70;3.10;;;0.30;99.90;;;;;;5017326;28;20488;-66
2024/01/19 08:05:20;;;;;;;4.67;2.60;;;0.30;99.90;;;;;;5016796;28;20437;-65
2024/01/19 08:07:47;;;;;;;3.97;2.27;;;0.30;99.90;;;;;;5016935;28;20489;-65
2024/01/19 08:10:14;;;;;;;5.17;3.47;;;0.30;99.90;;;;;;5016903;28;20513;-65
2024/01/19 08:12:41;;;;;;;4.40;1.80;;;0.30;99.90;;;;;;5018605;28;20467;-62
2024/01/19 08:15:09;;;;;;;6.70;3.00;;;0.30;99.90;;;;;;5018902;28;20464;-67
2024/01/19 08:17:37;;;;;;;5.53;3.90;;;0.30;99.90;;;;;;5019602;28;20468;-62
2024/01/19 08:20:10;;;;;;;4.50;2.00;;;0.30;99.90;;;;;;5018453;28;20908;-65
2024/01/19 08:22:43;;;;;;;5.93;2.97;;;0.30;99.90;;;;;;5017666;28;20501;-64
2024/01/19 08:25:10;;;;;;;4.73;3.23;;;0.30;99.90;;;;;;5017038;28;20489;-66
2024/01/19 08:27:40;;;;;;;7.83;2.60;;;0.30;99.90;;;;;;5017083;28;20471;-66
2024/01/19 08:30:13;;;;;;;3.57;2.10;;;0.30;99.90;;;;;;5015903;28;20460;-64
2024/01/19 08:32:45;;;;;;;8.00;3.70;;;0.40;99.90;;;;;;5017302;28;20414;-66
2024/01/19 08:35:12;;;;;;;4.97;3.30;;;0.40;99.90;;;;;;5016493;28;20492;-66
2024/01/19 08:37:40;;;;;;;5.73;3.70;;;0.50;99.90;;;;;;5017280;28;20444;-66
2024/01/19 08:40:09;;;;;;;6.00;2.40;;;0.50;99.90;;;;;;5017217;28;20514;-66
2024/01/19 08:42:38;;;;;;;9.00;3.23;;;0.60;99.90;;;;;;5017295;28;20465;-65
2024/01/19 08:45:06;;;;;;;4.40;2.37;;;0.70;99.90;;;;;;5016622;28;20453;-65
2024/01/19 08:47:34;;;;;;;6.60;3.40;;;0.70;99.90;;;;;;5016130;28;20524;-63
2024/01/19 08:50:02;;;;;;;16.00;4.50;;;0.80;99.90;;;;;;5016747;28;20441;-66
2024/01/19 08:52:30;;;;;;;3.10;2.60;;;0.80;99.90;;;;;;5015780;28;20461;-66
2024/01/19 08:54:56;;;;;;;3.80;2.73;;;0.80;99.90;;;;;;5016328;28;20525;-64
2024/01/19 08:57:24;;;;;;;5.43;3.57;;;0.90;99.90;;;;;;5016565;28;20455;-63
2024/01/19 08:59:51;;;;;;;3.57;1.73;;;0.80;99.90;;;;;;5016752;28;20492;-63
2024/01/19 09:02:18;;;;;;;4.53;3.57;;;0.70;99.90;;;;;;5015749;28;20472;-64
2024/01/19 09:04:53;;;;;;;8.93;3.83;;;0.70;99.90;;;;;;5016122;28;20463;-65
2024/01/19 09:07:21;;;;;;;5.73;2.80;;;0.70;99.90;;;;;;5016553;28;20845;-66
2024/01/19 09:09:48;;;;;;;11.93;4.03;;;0.70;99.90;;;;;;5017471;28;20443;-65
2024/01/19 09:12:17;;;;;;;7.63;3.83;;;0.70;99.90;;;;;;5016875;28;20463;-64
2024/01/19 09:14:44;;;;;;;5.00;3.67;;;0.70;99.90;;;;;;5017290;28;20442;-63
2024/01/19 09:17:14;;;;;;;6.57;3.53;;;0.70;99.90;;;;;;5017320;28;20438;-63
2024/01/19 09:19:41;;;;;;;3.60;2.70;;;0.70;99.90;;;;;;5017106;28;20418;-63
2024/01/19 09:22:07;;;;;;;9.13;4.10;;;0.70;99.90;;;;;;5016635;28;20510;-64
2024/01/19 09:24:39;;;;;;;4.33;2.73;;;0.70;99.90;;;;;;5015881;28;20460;-64
2024/01/19 09:27:06;;;;;;;6.77;4.50;;;0.80;99.90;;;;;;5015943;28;20452;-60
2024/01/19 09:29:32;;;;;;;5.63;3.40;;;0.80;99.90;;;;;;5017157;28;20432;-59
2024/01/19 09:32:02;;;;;;;4.83;3.00;;;0.80;99.90;;;;;;5016124;28;20869;-63
2024/01/19 09:34:29;;;;;;;10.97;4.93;;;0.80;99.90;;;;;;5016708;28;20476;-62
2024/01/19 09:36:56;;;;;;;7.63;3.40;;;0.90;99.90;;;;;;5015796;28;20472;-64
2024/01/19 09:39:26;;;;;;;5.40;3.53;;;1.00;99.90;;;;;;5016064;28;20441;-64
2024/01/19 09:42:04;;;;;;;6.37;2.90;;;1.10;99.90;;;;;;5016435;28;20445;-60
2024/01/19 09:44:38;;;;;;;5.70;3.20;;;1.20;99.90;;;;;;5017207;28;20464;-64
2024/01/19 09:47:20;;;;;;;8.20;3.93;;;1.40;99.90;;;;;;5016448;28;20488;-68
2024/01/19 09:50:03;;;;;;;11.13;4.63;;;1.80;99.90;;;;;;5016569;28;20457;-66
2024/01/19 09:52:49;;;;;;;6.97;4.47;;;2.20;99.90;;;;;;5017127;28;20502;-62
2024/01/19 09:55:17;;;;;;;3.23;2.07;;;2.50;99.90;;;;;;5016503;28;20536;-64
2024/01/19 09:57:47;;;;;;;2.70;2.43;;;2.40;99.90;;;;;;5015937;28;20458;-62
2024/01/19 10:00:18;;;;;;;2.70;2.23;;;2.60;99.90;;;;;;5014905;28;20471;-61
2024/01/19 10:02:50;;;;;;;4.53;2.27;;;2.70;99.90;;;;;;5015112;28;20463;-65
2024/01/19 10:05:23;;;;;;;7.83;3.50;;;2.70;99.90;;;;;;5014998;28;20433;-67
2024/01/19 10:07:55;;;;;;;6.53;3.90;;;2.90;99.90;;;;;;5016255;28;20467;-64
2024/01/19 10:10:25;;;;;;;3.20;2.83;;;3.00;99.90;;;;;;5015065;28;20431;-64
2024/01/19 10:12:57;;;;;;;3.93;3.53;;;3.00;99.90;;;;;;5016054;28;20467;-67
2024/01/19 10:15:24;;;;;;;5.77;3.90;;;3.20;99.90;;;;;;5016717;28;20462;-69
2024/01/19 10:17:54;;;;;;;5.63;3.90;;;3.10;99.90;;;;;;5015726;28;20508;-64
2024/01/19 10:20:21;;;;;;;6.23;3.60;;;3.20;99.90;;;;;;5015218;28;20781;-65
2024/01/19 10:22:51;;;;;;;7.80;4.20;;;3.40;99.90;;;;;;5015389;28;20467;-66
2024/01/19 10:25:22;;;;;;;4.27;3.03;;;3.70;99.90;;;;;;5015625;28;20504;-66
2024/01/19 10:27:51;;;;;;;5.33;3.43;;;3.80;99.90;;;;;;5015641;28;20522;-66
2024/01/19 10:30:21;;;;;;;7.23;3.47;;;4.30;99.90;;;;;;5016563;28;20432;-65
2024/01/19 10:32:50;;;;;;;10.50;3.97;;;4.80;99.90;;;;;;5016324;28;20455;-67
2024/01/19 10:35:21;;;;;;;4.87;3.60;;;5.10;99.90;;;;;;5016860;28;20472;-65
2024/01/19 10:37:48;;;;;;;8.07;4.13;;;5.10;99.90;;;;;;5017378;28;20413;-64
2024/01/19 10:40:20;;;;;;;22.97;11.63;;;5.30;99.90;;;;;;5020671;28;20499;-64
2024/01/19 10:42:48;;;;;;;8.40;4.00;;;5.30;99.90;;;;;;5021156;28;20527;-64
2024/01/19 10:45:17;;;;;;;5.20;3.27;;;5.40;99.90;;;;;;5020772;28;20438;-65
2024/01/19 10:47:47;;;;;;;10.47;4.13;;;5.30;99.90;;;;;;5020211;28;20458;-65
2024/01/19 10:50:16;;;;;;;2.87;2.50;;;4.90;99.90;;;;;;5019910;28;20448;-67
2024/01/19 10:52:47;;;;;;;20.83;5.97;;;4.40;99.90;;;;;;5019912;28;20439;-65
2024/01/19 10:55:23;;;;;;;12.27;3.93;;;4.00;99.90;;;;;;5019948;28;20905;-66
2024/01/19 10:57:51;;;;;;;8.93;4.40;;;3.70;99.90;;;;;;5020557;28;20461;-62
2024/01/19 11:00:26;;;;;;;5.13;3.17;;;3.40;99.90;;;;;;5020259;28;20439;-66
2024/01/19 11:03:00;;;;;;;6.90;4.10;;;3.30;99.90;;;;;;5019424;28;20500;-64
2024/01/19 11:05:29;;;;;;;6.30;4.07;;;3.10;99.90;;;;;;5019720;28;20431;-65
2024/01/19 11:08:01;;;;;;;4.50;3.23;;;2.90;99.90;;;;;;5019345;28;20475;-63
2024/01/19 11:10:31;;;;;;;7.87;5.20;;;2.80;99.90;;;;;;5018773;28;20452;-62
2024/01/19 11:13:03;;;;;;;7.97;3.90;;;2.70;99.90;;;;;;5018272;28;20460;-65
2024/01/19 11:15:35;;;;;;;8.17;3.60;;;2.60;99.90;;;;;;5019146;28;20442;-63
2024/01/19 11:18:05;;;;;;;6.10;3.20;;;2.50;99.90;;;;;;5018570;28;20476;-63
2024/01/19 11:20:33;;;;;;;8.07;4.93;;;2.40;99.90;;;;;;5019086;28;20539;-65
2024/01/19 11:23:01;;;;;;;6.60;2.87;;;2.40;99.90;;;;;;5018444;28;20498;-62
2024/01/19 11:25:54;;;;;;;7.13;3.73;;;2.40;99.90;;;;;;5018695;28;20472;-63
2024/01/19 11:28:24;;;;;;;7.10;3.73;;;2.40;99.90;;;;;;5019065;28;20497;-63
2024/01/19 11:31:10;;;;;;;7.83;4.40;;;2.50;99.90;;;;;;5019131;28;20462;-64
2024/01/19 11:33:39;;;;;;;4.10;3.40;;;2.50;99.90;;;;;;5018858;28;20432;-64
2024/01/19 11:36:08;;;;;;;8.50;3.47;;;2.50;99.90;;;;;;5018133;28;20441;-63
2024/01/19 11:38:45;;;;;;;7.20;4.07;;;2.40;99.90;;;;;;5018680;28;20455;-62
2024/01/19 11:41:46;;;;;;;9.33;3.73;;;2.60;99.90;;;;;;5018504;28;20467;-64
2024/01/19 11:44:46;;;;;;;9.90;4.20;;;2.50;99.90;;;;;;5018668;28;20501;-64
2024/01/19 11:47:45;;;;;;;5.50;3.77;;;2.50;99.90;;;;;;5018630;28;20510;-64
2024/01/19 11:50:15;;;;;;;15.63;5.23;;;2.40;99.90;;;;;;5017336;28;20444;-66
2024/01/19 11:53:19;;;;;;;15.17;5.47;;;2.50;99.90;;;;;;5018912;28;20426;-66
2024/01/19 11:55:48;;;;;;;10.83;4.20;;;4.10;99.90;;;;;;5019084;28;20480;-63
2024/01/19 11:58:34;;;;;;;10.90;4.87;;;3.90;99.90;;;;;;5018323;28;20430;-65
2024/01/19 12:01:03;;;;;;;9.00;4.67;;;3.50;99.90;;;;;;5018692;28;20462;-61
2024/01/19 12:03:30;;;;;;;5.77;3.70;;;3.30;99.90;;;;;;5018404;28;20489;-63
2024/01/19 12:06:00;;;;;;;5.67;3.30;;;3.20;99.90;;;;;;5017783;28;20488;-65
2024/01/19 12:08:28;;;;;;;7.30;3.70;;;3.10;99.90;;;;;;5018340;28;20470;-64
2024/01/19 12:11:07;;;;;;;6.50;4.30;;;3.00;99.90;;;;;;5018021;28;20452;-66
2024/01/19 12:13:36;;;;;;;8.73;3.67;;;3.00;99.90;;;;;;5017866;28;20501;-65
2024/01/19 12:16:04;;;;;;;6.60;3.50;;;3.00;99.90;;;;;;5017528;28;20487;-64
2024/01/19 12:18:33;;;;;;;7.03;3.97;;;2.90;99.90;;;;;;5017846;28;20463;-66
2024/01/19 12:21:02;;;;;;;5.33;3.43;;;2.90;99.90;;;;;;5018110;28;20502;-64
2024/01/19 12:23:32;;;;;;;7.07;3.30;;;2.90;99.90;;;;;;5017097;28;20478;-65
2024/01/19 12:26:00;;;;;;;14.00;4.10;;;2.90;99.90;;;;;;5017244;28;20423;-64
2024/01/19 12:28:28;;;;;;;5.10;3.73;;;2.90;99.90;;;;;;5017916;28;20487;-64
2024/01/19 12:30:58;;;;;;;3.87;3.03;;;2.90;99.90;;;;;;5017453;28;20476;-63
2024/01/19 12:33:28;;;;;;;3.70;2.47;;;3.00;99.90;;;;;;5017672;28;20454;-63
2024/01/19 12:36:10;;;;;;;3.87;2.57;;;3.00;99.90;;;;;;5016843;28;20472;-64
2024/01/19 12:38:37;;;;;;;4.10;2.63;;;2.90;99.90;;;;;;5017766;28;20430;-65
2024/01/19 12:41:09;;;;;;;5.60;3.30;;;2.90;99.90;;;;;;5017625;28;20454;-65
2024/01/19 12:43:36;;;;;;;6.20;2.70;;;2.80;99.90;;;;;;5017887;28;20434;-64
2024/01/19 12:46:05;;;;;;;4.77;3.20;;;2.70;99.90;;;;;;5017827;28;20482;-64
2024/01/19 12:48:33;;;;;;;4.40;2.47;;;2.70;99.90;;;;;;5018364;28;20489;-64
2024/01/19 12:51:03;;;;;;;8.00;3.20;;;2.60;99.90;;;;;;5018391;28;20450;-64
2024/01/19 12:53:33;;;;;;;11.90;2.90;;;2.60;99.90;;;;;;5018463;28;20501;-64
2024/01/19 12:56:01;;;;;;;11.03;3.80;;;2.70;99.90;;;;;;5017161;28;20429;-62
2024/01/19 12:58:30;;;;;;;5.10;2.87;;;2.80;99.90;;;;;;5017669;28;20446;-65